Beaverton, OR (97007)

4:59 AM PST on February 06, 2016 (GMT -0800)
Cooper Mountain | | Change Station
CLOSE
Current Station
Personal Weather Station
Location: Aloha, OR
Elevation: 312 ft
Nearby Weather Stations

Elev 312 ft 45.47 °N, 122.89 °W | Updated 2 seconds ago

Partly Cloudy
Partly Cloudy
41.2 °F
Feels Like 41 °F
N
0.0
Wind Variable Wind from North
Gusts 0.0 mph

Today
High -- | Low -- °F
--% Chance of Precip.
Yesterday
High -- | Low -- °F
Precip. -- in
Pressure 30.45 in
Visibility 10.0 miles
Clouds Clear
Windchill 41 °F
Dew Point 41 °F
Humidity 99%
Rainfall 0.00 in
Snow Depth Not available.
7:26 AM 5:25 PM
Waning Crescent, 6% visible
METAR KHIO 061253Z 00000KT 10SM CLR 03/02 A3044 RMK AO2 SLP310 T00280022
Pressure 30.45 in
Visibility 10.0 miles
Clouds Clear
Windchill 41 °F
Dew Point 41 °F
Humidity 99%
Rainfall 0.00 in
Snow Depth Not available.
7:26 AM 5:25 PM
Waning Crescent, 6% visible
METAR KHIO 061253Z 00000KT 10SM CLR 03/02 A3044 RMK AO2 SLP310 T00280022

10-Day Weather Forecast

Almanac

Astronomy

Feb. 06, 2016 Rise Set
Actual Time
Civil Twilight
Nautical Twilight
Astronomical Twilight
Moon
Length of Visible Light
Length of Day
Tomorrow will be .
, % of the Moon is Illuminated

Today's Extremes

State Highs State Lows

Community

WunderPhotos

Upload Photos

1,890,954 photos uploaded!

WunderBlog® & News

Nearby

Air Quality

  Air Quality AQ Index Pollutant
Not available.

Snow Depth

Station Depth Elevation

Earthquake Activity

City Distance Mag. Time & Date
Minimum magnitude displayed is 2.5.

Coastal Water Temperatures

Place Temperature

Stations

Nearby Weather Stations

Station Location Temp. Windchill Dew Point Humidity Wind Precip. Elev Updated Type
                   

Watches & Warnings

There are currently no watches in effect.